sensor_id;sensor_type;location;lat;lon;timestamp;pressure;altitude;pressure_sealevel;temperature;humidity
15267;BME280;7735;49.144;8.668;2023-05-19T00:01:07;100738.00;;;15.64;43.36
15267;BME280;7735;49.144;8.668;2023-05-19T00:03:34;100731.03;;;15.61;43.45
15267;BME280;7735;49.144;8.668;2023-05-19T00:06:07;100737.19;;;15.58;43.43
15267;BME280;7735;49.144;8.668;2023-05-19T00:08:33;100729.34;;;15.57;43.40
15267;BME280;7735;49.144;8.668;2023-05-19T00:11:03;100728.50;;;15.55;43.50
15267;BME280;7735;49.144;8.668;2023-05-19T00:13:31;100733.75;;;15.53;43.56
15267;BME280;7735;49.144;8.668;2023-05-19T00:15:58;100730.28;;;15.53;43.76
15267;BME280;7735;49.144;8.668;2023-05-19T00:18:24;100725.88;;;15.53;43.51
15267;BME280;7735;49.144;8.668;2023-05-19T00:20:53;100719.75;;;15.54;43.76
15267;BME280;7735;49.144;8.668;2023-05-19T00:23:22;100721.47;;;15.57;43.47
15267;BME280;7735;49.144;8.668;2023-05-19T00:25:48;100716.22;;;15.57;43.67
15267;BME280;7735;49.144;8.668;2023-05-19T00:28:15;100725.88;;;15.53;43.60
15267;BME280;7735;49.144;8.668;2023-05-19T00:30:42;100728.56;;;15.50;43.82
15267;BME280;7735;49.144;8.668;2023-05-19T00:33:08;100726.03;;;15.47;43.88
15267;BME280;7735;49.144;8.668;2023-05-19T00:35:35;100727.78;;;15.45;43.84
15267;BME280;7735;49.144;8.668;2023-05-19T00:38:01;100725.16;;;15.45;43.77
15267;BME280;7735;49.144;8.668;2023-05-19T00:40:30;100723.44;;;15.44;43.67
15267;BME280;7735;49.144;8.668;2023-05-19T00:42:57;100724.34;;;15.43;43.90
15267;BME280;7735;49.144;8.668;2023-05-19T00:45:24;100730.47;;;15.42;43.66
15267;BME280;7735;49.144;8.668;2023-05-19T00:47:51;100720.88;;;15.41;43.73
15267;BME280;7735;49.144;8.668;2023-05-19T00:50:17;100722.63;;;15.41;43.67
15267;BME280;7735;49.144;8.668;2023-05-19T00:52:44;100717.41;;;15.39;44.02
15267;BME280;7735;49.144;8.668;2023-05-19T00:55:11;100718.28;;;15.40;43.96
15267;BME280;7735;49.144;8.668;2023-05-19T00:57:40;100720.06;;;15.38;43.94
15267;BME280;7735;49.144;8.668;2023-05-19T01:00:09;100718.38;;;15.34;43.86
15267;BME280;7735;49.144;8.668;2023-05-19T01:02:36;100712.34;;;15.30;43.95
15267;BME280;7735;49.144;8.668;2023-05-19T01:05:04;100714.06;;;15.31;43.80
15267;BME280;7735;49.144;8.668;2023-05-19T01:07:32;100707.88;;;15.34;43.88
15267;BME280;7735;49.144;8.668;2023-05-19T01:09:58;100708.75;;;15.34;43.79
15267;BME280;7735;49.144;8.668;2023-05-19T01:12:25;100707.88;;;15.34;43.82
15267;BME280;7735;49.144;8.668;2023-05-19T01:14:54;100706.19;;;15.31;43.67
15267;BME280;7735;49.144;8.668;2023-05-19T01:17:26;100706.22;;;15.29;43.95
15267;BME280;7735;49.144;8.668;2023-05-19T01:19:58;100706.25;;;15.26;43.79
15267;BME280;7735;49.144;8.668;2023-05-19T01:22:57;100699.25;;;15.27;44.12
15267;BME280;7735;49.144;8.668;2023-05-19T01:26:03;100702.78;;;15.26;43.98
15267;BME280;7735;49.144;8.668;2023-05-19T01:28:52;100700.22;;;15.23;44.14
15267;BME280;7735;49.144;8.668;2023-05-19T01:31:25;100702.91;;;15.20;44.04
15267;BME280;7735;49.144;8.668;2023-05-19T01:33:53;100699.38;;;15.19;43.96
15267;BME280;7735;49.144;8.668;2023-05-19T01:36:21;100698.59;;;15.16;44.30
15267;BME280;7735;49.144;8.668;2023-05-19T01:38:50;100695.97;;;15.16;44.42
15267;BME280;7735;49.144;8.668;2023-05-19T01:41:18;100694.28;;;15.13;44.29
15267;BME280;7735;49.144;8.668;2023-05-19T01:43:46;100702.19;;;15.12;44.36
15267;BME280;7735;49.144;8.668;2023-05-19T01:46:13;100696.97;;;15.09;44.36
15267;BME280;7735;49.144;8.668;2023-05-19T01:48:42;100697.00;;;15.07;44.79
15267;BME280;7735;49.144;8.668;2023-05-19T01:51:10;100693.56;;;15.04;44.65
15267;BME280;7735;49.144;8.668;2023-05-19T01:53:37;100697.09;;;15.02;44.78
15267;BME280;7735;49.144;8.668;2023-05-19T01:56:04;100700.56;;;15.01;44.90
15267;BME280;7735;49.144;8.668;2023-05-19T01:58:36;100701.47;;;15.02;45.26
15267;BME280;7735;49.144;8.668;2023-05-19T02:01:12;100706.72;;;15.00;45.13
15267;BME280;7735;49.144;8.668;2023-05-19T02:03:51;100713.75;;;14.98;45.11
15267;BME280;7735;49.144;8.668;2023-05-19T02:06:28;100709.50;;;14.91;45.59
15267;BME280;7735;49.144;8.668;2023-05-19T02:08:58;100712.22;;;14.85;45.50
15267;BME280;7735;49.144;8.668;2023-05-19T02:11:34;100705.25;;;14.83;45.82
15267;BME280;7735;49.144;8.668;2023-05-19T02:14:07;100718.47;;;14.78;45.74
15267;BME280;7735;49.144;8.668;2023-05-19T02:16:35;100715.03;;;14.73;45.97
15267;BME280;7735;49.144;8.668;2023-05-19T02:19:04;100725.50;;;14.73;45.79
15267;BME280;7735;49.144;8.668;2023-05-19T02:21:30;100727.25;;;14.74;45.76
15267;BME280;7735;49.144;8.668;2023-05-19T02:23:57;100723.72;;;14.75;45.97
15267;BME280;7735;49.144;8.668;2023-05-19T02:26:24;100723.72;;;14.75;45.87
15267;BME280;7735;49.144;8.668;2023-05-19T02:28:51;100721.13;;;14.73;45.66
15267;BME280;7735;49.144;8.668;2023-05-19T02:31:17;100721.09;;;14.77;45.97
15267;BME280;7735;49.144;8.668;2023-05-19T02:33:44;100715.00;;;14.76;45.98
15267;BME280;7735;49.144;8.668;2023-05-19T02:36:12;100706.28;;;14.74;45.79
15267;BME280;7735;49.144;8.668;2023-05-19T02:38:39;100708.06;;;14.72;45.87
15267;BME280;7735;49.144;8.668;2023-05-19T02:41:05;100716.75;;;14.74;46.37
15267;BME280;7735;49.144;8.668;2023-05-19T02:43:32;100704.53;;;14.76;46.10
15267;BME280;7735;49.144;8.668;2023-05-19T02:45:58;100713.25;;;14.75;46.34
15267;BME280;7735;49.144;8.668;2023-05-19T02:48:25;100710.63;;;14.75;46.31
15267;BME280;7735;49.144;8.668;2023-05-19T02:50:52;100712.38;;;14.76;46.12
15267;BME280;7735;49.144;8.668;2023-05-19T02:53:19;100706.25;;;14.77;46.07
15267;BME280;7735;49.144;8.668;2023-05-19T02:55:46;100707.13;;;14.74;45.81
15267;BME280;7735;49.144;8.668;2023-05-19T02:58:13;100707.13;;;14.74;45.99
15267;BME280;7735;49.144;8.668;2023-05-19T03:00:39;100708.06;;;14.72;46.02
15267;BME280;7735;49.144;8.668;2023-05-19T03:03:08;100710.66;;;14.73;45.94
15267;BME280;7735;49.144;8.668;2023-05-19T03:05:35;100700.22;;;14.70;46.17
15267;BME280;7735;49.144;8.668;2023-05-19T03:08:01;100701.16;;;14.68;45.93
15267;BME280;7735;49.144;8.668;2023-05-19T03:10:29;100699.44;;;14.67;45.94
15267;BME280;7735;49.144;8.668;2023-05-19T03:12:56;100702.91;;;14.66;45.81
15267;BME280;7735;49.144;8.668;2023-05-19T03:15:22;100697.66;;;14.66;45.83
15267;BME280;7735;49.144;8.668;2023-05-19T03:17:49;100696.84;;;14.62;45.84
15267;BME280;7735;49.144;8.668;2023-05-19T03:20:16;100696.00;;;14.62;45.89
15267;BME280;7735;49.144;8.668;2023-05-19T03:22:43;100698.66;;;14.59;45.99
15267;BME280;7735;49.144;8.668;2023-05-19T03:25:09;100700.44;;;14.57;46.14
15267;BME280;7735;49.144;8.668;2023-05-19T03:27:37;100699.59;;;14.55;46.32
15267;BME280;7735;49.144;8.668;2023-05-19T03:30:05;100698.78;;;14.51;46.54
15267;BME280;7735;49.144;8.668;2023-05-19T03:32:32;100700.53;;;14.51;46.46
15267;BME280;7735;49.144;8.668;2023-05-19T03:35:02;100700.50;;;14.52;46.27
15267;BME280;7735;49.144;8.668;2023-05-19T03:37:28;100699.66;;;14.52;46.29
15267;BME280;7735;49.144;8.668;2023-05-19T03:39:55;100708.41;;;14.51;46.27
15267;BME280;7735;49.144;8.668;2023-05-19T03:42:21;100703.16;;;14.51;46.62
15267;BME280;7735;49.144;8.668;2023-05-19T03:44:50;100700.56;;;14.49;46.60
15267;BME280;7735;49.144;8.668;2023-05-19T03:47:16;100699.66;;;14.49;46.54
15267;BME280;7735;49.144;8.668;2023-05-19T03:49:43;100704.88;;;14.52;46.47
15267;BME280;7735;49.144;8.668;2023-05-19T03:52:10;100704.88;;;14.52;46.65
15267;BME280;7735;49.144;8.668;2023-05-19T03:54:37;100713.66;;;14.48;46.77
15267;BME280;7735;49.144;8.668;2023-05-19T03:57:04;100710.22;;;14.42;46.59
15267;BME280;7735;49.144;8.668;2023-05-19T03:59:31;100720.78;;;14.36;46.75
15267;BME280;7735;49.144;8.668;2023-05-19T04:01:59;100726.97;;;14.32;46.94
15267;BME280;7735;49.144;8.668;2023-05-19T04:04:26;100725.25;;;14.28;47.01
15267;BME280;7735;49.144;8.668;2023-05-19T04:06:52;100725.38;;;14.19;47.80
15267;BME280;7735;49.144;8.668;2023-05-19T04:09:20;100732.50;;;14.09;47.91
15267;BME280;7735;49.144;8.668;2023-05-19T04:11:48;100729.13;;;14.00;48.38
15267;BME280;7735;49.144;8.668;2023-05-19T04:14:15;100724.84;;;13.93;48.72
15267;BME280;7735;49.144;8.668;2023-05-19T04:16:41;100726.63;;;13.91;48.54
15267;BME280;7735;49.144;8.668;2023-05-19T04:19:09;100724.88;;;13.91;48.96
15267;BME280;7735;49.144;8.668;2023-05-19T04:21:36;100726.56;;;13.94;49.27
15267;BME280;7735;49.144;8.668;2023-05-19T04:24:03;100729.19;;;13.94;48.92
15267;BME280;7735;49.144;8.668;2023-05-19T04:26:30;100725.78;;;13.88;49.22
15267;BME280;7735;49.144;8.668;2023-05-19T04:28:58;100723.22;;;13.82;49.16
15267;BME280;7735;49.144;8.668;2023-05-19T04:31:26;100724.16;;;13.78;49.35
15267;BME280;7735;49.144;8.668;2023-05-19T04:33:52;100725.91;;;13.76;49.76
15267;BME280;7735;49.144;8.668;2023-05-19T04:36:20;100715.47;;;13.73;50.28
15267;BME280;7735;49.144;8.668;2023-05-19T04:38:48;100731.19;;;13.73;50.38
15267;BME280;7735;49.144;8.668;2023-05-19T04:41:18;100726.84;;;13.69;50.56
15267;BME280;7735;49.144;8.668;2023-05-19T04:43:46;100731.25;;;13.66;50.45
15267;BME280;7735;49.144;8.668;2023-05-19T04:46:14;100738.25;;;13.65;50.63
15267;BME280;7735;49.144;8.668;2023-05-19T04:48:40;100744.31;;;13.67;50.94
15267;BME280;7735;49.144;8.668;2023-05-19T04:51:07;100743.41;;;13.71;50.83
15267;BME280;7735;49.144;8.668;2023-05-19T04:53:35;100737.19;;;13.81;50.58
15267;BME280;7735;49.144;8.668;2023-05-19T04:56:04;100730.13;;;13.89;50.48
15267;BME280;7735;49.144;8.668;2023-05-19T04:58:31;100742.25;;;13.97;50.07
15267;BME280;7735;49.144;8.668;2023-05-19T05:00:58;100737.03;;;13.97;49.85
15267;BME280;7735;49.144;8.668;2023-05-19T05:03:25;100740.50;;;13.96;50.12
15267;BME280;7735;49.144;8.668;2023-05-19T05:05:51;100741.44;;;13.92;50.66
15267;BME280;7735;49.144;8.668;2023-05-19T05:08:18;100742.38;;;13.87;51.25
15267;BME280;7735;49.144;8.668;2023-05-19T05:10:49;100744.13;;;13.85;51.38
15267;BME280;7735;49.144;8.668;2023-05-19T05:13:17;100737.16;;;13.84;51.47
15267;BME280;7735;49.144;8.668;2023-05-19T05:15:44;100738.97;;;13.79;51.44
15267;BME280;7735;49.144;8.668;2023-05-19T05:18:11;100738.97;;;13.76;51.83
15267;BME280;7735;49.144;8.668;2023-05-19T05:20:39;100743.34;;;13.76;51.42
15267;BME280;7735;49.144;8.668;2023-05-19T05:23:12;100736.38;;;13.76;51.39
15267;BME280;7735;49.144;8.668;2023-05-19T05:25:40;100739.84;;;13.77;51.45
15267;BME280;7735;49.144;8.668;2023-05-19T05:28:08;100738.97;;;13.79;51.24
15267;BME280;7735;49.144;8.668;2023-05-19T05:30:35;100744.22;;;13.79;51.31
15267;BME280;7735;49.144;8.668;2023-05-19T05:33:02;100738.94;;;13.82;51.67
15267;BME280;7735;49.144;8.668;2023-05-19T05:35:28;100746.72;;;13.85;51.70
15267;BME280;7735;49.144;8.668;2023-05-19T05:37:55;100743.19;;;13.91;51.39
15267;BME280;7735;49.144;8.668;2023-05-19T05:40:22;100740.47;;;13.99;51.24
15267;BME280;7735;49.144;8.668;2023-05-19T05:42:48;100742.16;;;14.06;51.32
15267;BME280;7735;49.144;8.668;2023-05-19T05:45:16;100744.63;;;14.16;50.90
15267;BME280;7735;49.144;8.668;2023-05-19T05:47:43;100736.69;;;14.24;50.02
15267;BME280;7735;49.144;8.668;2023-05-19T05:50:12;100740.94;;;14.33;49.81
15267;BME280;7735;49.144;8.668;2023-05-19T05:52:39;100732.97;;;14.40;49.71
15267;BME280;7735;49.144;8.668;2023-05-19T05:55:07;100730.31;;;14.45;49.05
15267;BME280;7735;49.144;8.668;2023-05-19T05:57:34;100727.66;;;14.47;48.86
15267;BME280;7735;49.144;8.668;2023-05-19T06:00:01;100727.63;;;14.50;48.80
15267;BME280;7735;49.144;8.668;2023-05-19T06:02:31;100725.84;;;14.52;48.62
15267;BME280;7735;49.144;8.668;2023-05-19T06:04:58;100724.06;;;14.54;48.61
15267;BME280;7735;49.144;8.668;2023-05-19T06:07:24;100723.13;;;14.56;48.94
15267;BME280;7735;49.144;8.668;2023-05-19T06:09:51;100725.75;;;14.59;48.63
15267;BME280;7735;49.144;8.668;2023-05-19T06:12:17;100729.16;;;14.63;48.76
15267;BME280;7735;49.144;8.668;2023-05-19T06:14:44;100734.34;;;14.66;48.69
15267;BME280;7735;49.144;8.668;2023-05-19T06:17:11;100729.97;;;14.68;48.75
15267;BME280;7735;49.144;8.668;2023-05-19T06:19:39;100729.88;;;14.74;48.45
15267;BME280;7735;49.144;8.668;2023-05-19T06:22:05;100732.47;;;14.77;48.28
15267;BME280;7735;49.144;8.668;2023-05-19T06:24:32;100726.31;;;14.78;48.62
15267;BME280;7735;49.144;8.668;2023-05-19T06:26:59;100721.94;;;14.79;48.38
15267;BME280;7735;49.144;8.668;2023-05-19T06:29:25;100730.59;;;14.82;48.47
15267;BME280;7735;49.144;8.668;2023-05-19T06:31:52;100734.06;;;14.86;48.31
15267;BME280;7735;49.144;8.668;2023-05-19T06:34:18;100726.13;;;14.90;48.13
15267;BME280;7735;49.144;8.668;2023-05-19T06:36:46;100727.75;;;14.97;47.96
15267;BME280;7735;49.144;8.668;2023-05-19T06:39:13;100726.78;;;15.05;48.14
15267;BME280;7735;49.144;8.668;2023-05-19T06:41:40;100724.91;;;15.10;48.23
15267;BME280;7735;49.144;8.668;2023-05-19T06:44:06;100725.72;;;15.15;48.09
15267;BME280;7735;49.144;8.668;2023-05-19T06:46:33;100721.22;;;15.23;47.92
15267;BME280;7735;49.144;8.668;2023-05-19T06:49:00;100727.22;;;15.29;47.74
15267;BME280;7735;49.144;8.668;2023-05-19T06:51:27;100726.22;;;15.35;47.91
15267;BME280;7735;49.144;8.668;2023-05-19T06:53:55;100728.78;;;15.40;47.62
15267;BME280;7735;49.144;8.668;2023-05-19T06:56:21;100731.28;;;15.47;47.52
15267;BME280;7735;49.144;8.668;2023-05-19T06:58:48;100729.38;;;15.54;46.98
15267;BME280;7735;49.144;8.668;2023-05-19T07:01:14;100728.44;;;15.58;46.89
15267;BME280;7735;49.144;8.668;2023-05-19T07:03:41;100724.00;;;15.62;46.92
15267;BME280;7735;49.144;8.668;2023-05-19T07:06:08;100716.09;;;15.65;46.92
15267;BME280;7735;49.144;8.668;2023-05-19T07:08:34;100716.84;;;15.70;47.25
15267;BME280;7735;49.144;8.668;2023-05-19T07:11:03;100713.31;;;15.74;47.24
15267;BME280;7735;49.144;8.668;2023-05-19T07:13:30;100714.94;;;15.78;47.37
15267;BME280;7735;49.144;8.668;2023-05-19T07:15:57;100721.00;;;15.83;47.19
15267;BME280;7735;49.144;8.668;2023-05-19T07:18:23;100712.16;;;15.87;47.13
15267;BME280;7735;49.144;8.668;2023-05-19T07:21:35;100707.69;;;15.92;47.08
15267;BME280;7735;49.144;8.668;2023-05-19T07:24:01;100711.06;;;15.97;46.68
15267;BME280;7735;49.144;8.668;2023-05-19T07:26:32;100710.94;;;16.03;46.61
15267;BME280;7735;49.144;8.668;2023-05-19T07:28:58;100709.63;;;16.23;45.39
15267;BME280;7735;49.144;8.668;2023-05-19T07:31:25;100708.94;;;16.55;44.02
15267;BME280;7735;49.144;8.668;2023-05-19T07:33:52;100709.56;;;16.64;43.81
15267;BME280;7735;49.144;8.668;2023-05-19T07:36:18;100700.88;;;16.62;43.60
15267;BME280;7735;49.144;8.668;2023-05-19T07:38:45;100704.44;;;16.58;43.14
15267;BME280;7735;49.144;8.668;2023-05-19T07:41:12;100695.81;;;16.53;43.38
15267;BME280;7735;49.144;8.668;2023-05-19T07:43:40;100694.97;;;16.51;43.30
15267;BME280;7735;49.144;8.668;2023-05-19T07:46:07;100701.16;;;16.49;43.66
15267;BME280;7735;49.144;8.668;2023-05-19T07:48:33;100695.97;;;16.47;43.56
15267;BME280;7735;49.144;8.668;2023-05-19T07:51:01;100692.44;;;16.48;43.69
15267;BME280;7735;49.144;8.668;2023-05-19T07:53:36;100694.97;;;16.51;43.69
15267;BME280;7735;49.144;8.668;2023-05-19T07:56:03;100697.56;;;16.54;43.63
15267;BME280;7735;49.144;8.668;2023-05-19T07:58:30;100694.88;;;16.56;43.51
15267;BME280;7735;49.144;8.668;2023-05-19T08:01:05;100699.19;;;16.58;43.26
15267;BME280;7735;49.144;8.668;2023-05-19T08:03:31;100688.63;;;16.61;43.37
15267;BME280;7735;49.144;8.668;2023-05-19T08:05:58;100684.22;;;16.62;43.51
15267;BME280;7735;49.144;8.668;2023-05-19T08:08:25;100687.69;;;16.64;43.81
15267;BME280;7735;49.144;8.668;2023-05-19T08:10:52;100684.06;;;16.68;43.82
15267;BME280;7735;49.144;8.668;2023-05-19T08:13:18;100682.22;;;16.73;43.94
15267;BME280;7735;49.144;8.668;2023-05-19T08:15:46;100673.34;;;16.79;43.80
15267;BME280;7735;49.144;8.668;2023-05-19T08:18:17;100681.97;;;16.84;43.03
15267;BME280;7735;49.144;8.668;2023-05-19T08:20:44;100681.88;;;16.88;42.72
15267;BME280;7735;49.144;8.668;2023-05-19T08:23:11;100679.09;;;16.93;42.63
15267;BME280;7735;49.144;8.668;2023-05-19T08:25:38;100672.88;;;16.97;42.78
15267;BME280;7735;49.144;8.668;2023-05-19T08:28:05;100674.50;;;17.01;42.43
15267;BME280;7735;49.144;8.668;2023-05-19T08:30:35;100673.50;;;17.07;42.17
15267;BME280;7735;49.144;8.668;2023-05-19T08:33:02;100669.91;;;17.09;41.89
15267;BME280;7735;49.144;8.668;2023-05-19T08:35:30;100668.16;;;17.10;41.69
15267;BME280;7735;49.144;8.668;2023-05-19T08:37:57;100669.81;;;17.12;41.79
15267;BME280;7735;49.144;8.668;2023-05-19T08:40:24;100669.75;;;17.15;41.54
15267;BME280;7735;49.144;8.668;2023-05-19T08:42:52;100669.59;;;17.21;41.63
15267;BME280;7735;49.144;8.668;2023-05-19T08:45:19;100661.59;;;17.26;41.22
15267;BME280;7735;49.144;8.668;2023-05-19T08:47:46;100663.16;;;17.33;41.13
15267;BME280;7735;49.144;8.668;2023-05-19T08:50:16;100660.38;;;17.38;41.58
15267;BME280;7735;49.144;8.668;2023-05-19T08:52:50;100654.94;;;17.44;41.45
15267;BME280;7735;49.144;8.668;2023-05-19T08:55:24;100657.38;;;17.51;41.15
15267;BME280;7735;49.144;8.668;2023-05-19T08:57:55;100658.13;;;17.55;41.55
15267;BME280;7735;49.144;8.668;2023-05-19T09:00:22;100665.06;;;17.59;41.47
15267;BME280;7735;49.144;8.668;2023-05-19T09:02:49;100658.75;;;17.65;41.18
15267;BME280;7735;49.144;8.668;2023-05-19T09:05:17;100657.66;;;17.73;39.98
15267;BME280;7735;49.144;8.668;2023-05-19T09:07:45;100654.03;;;17.77;39.49
15267;BME280;7735;49.144;8.668;2023-05-19T09:10:12;100646.78;;;17.84;38.97
15267;BME280;7735;49.144;8.668;2023-05-19T09:12:41;100650.22;;;17.88;38.88
15267;BME280;7735;49.144;8.668;2023-05-19T09:15:11;100640.50;;;17.90;38.58
15267;BME280;7735;49.144;8.668;2023-05-19T09:17:38;100644.94;;;17.88;38.99
15267;BME280;7735;49.144;8.668;2023-05-19T09:20:05;100649.25;;;17.90;38.94
15267;BME280;7735;49.144;8.668;2023-05-19T09:22:39;100642.13;;;17.94;38.76
15267;BME280;7735;49.144;8.668;2023-05-19T09:25:17;100639.41;;;17.97;38.16
15267;BME280;7735;49.144;8.668;2023-05-19T09:27:45;100647.19;;;18.00;37.58
15267;BME280;7735;49.144;8.668;2023-05-19T09:30:13;100634.03;;;18.00;37.54
15267;BME280;7735;49.144;8.668;2023-05-19T09:32:40;100638.31;;;18.04;37.57
15267;BME280;7735;49.144;8.668;2023-05-19T09:35:07;100631.28;;;18.04;37.85
15267;BME280;7735;49.144;8.668;2023-05-19T09:37:34;100632.84;;;18.10;37.95
15267;BME280;7735;49.144;8.668;2023-05-19T09:40:06;100632.69;;;18.15;37.37
15267;BME280;7735;49.144;8.668;2023-05-19T09:42:36;100630.94;;;18.15;37.60
15267;BME280;7735;49.144;8.668;2023-05-19T09:45:04;100624.75;;;18.16;37.54
15267;BME280;7735;49.144;8.668;2023-05-19T09:47:34;100625.50;;;18.20;37.89
15267;BME280;7735;49.144;8.668;2023-05-19T09:50:04;100634.19;;;18.23;37.82
15267;BME280;7735;49.144;8.668;2023-05-19T09:52:34;100627.94;;;18.26;37.98
15267;BME280;7735;49.144;8.668;2023-05-19T09:55:01;100620.84;;;18.29;37.98
15267;BME280;7735;49.144;8.668;2023-05-19T09:57:32;100618.13;;;18.31;37.91
15267;BME280;7735;49.144;8.668;2023-05-19T10:00:02;100619.75;;;18.35;38.35
15267;BME280;7735;49.144;8.668;2023-05-19T10:02:36;100621.41;;;18.39;38.16
15267;BME280;7735;49.144;8.668;2023-05-19T10:05:05;100602.88;;;18.40;38.21
15267;BME280;7735;49.144;8.668;2023-05-19T10:07:32;100608.97;;;18.43;38.31
15267;BME280;7735;49.144;8.668;2023-05-19T10:09:59;100603.56;;;18.46;38.66
15267;BME280;7735;49.144;8.668;2023-05-19T10:12:26;100599.13;;;18.48;38.63
15267;BME280;7735;49.144;8.668;2023-05-19T10:14:54;100592.91;;;18.50;38.46
15267;BME280;7735;49.144;8.668;2023-05-19T10:17:24;100593.63;;;18.54;38.44
15267;BME280;7735;49.144;8.668;2023-05-19T10:19:51;100596.09;;;18.60;38.58
15267;BME280;7735;49.144;8.668;2023-05-19T10:22:19;100599.47;;;18.65;38.22
15267;BME280;7735;49.144;8.668;2023-05-19T10:24:45;100595.88;;;18.67;38.25
15267;BME280;7735;49.144;8.668;2023-05-19T10:27:14;100598.44;;;18.69;38.22
15267;BME280;7735;49.144;8.668;2023-05-19T10:29:47;100591.34;;;18.71;38.29
15267;BME280;7735;49.144;8.668;2023-05-19T10:32:18;100594.81;;;18.73;38.10
15267;BME280;7735;49.144;8.668;2023-05-19T10:37:56;100583.09;;;18.80;38.16
15267;BME280;7735;49.144;8.668;2023-05-19T10:40:26;100592.59;;;18.86;37.73
15267;BME280;7735;49.144;8.668;2023-05-19T10:43:05;100595.06;;;18.90;37.62
15267;BME280;7735;49.144;8.668;2023-05-19T10:45:41;100586.19;;;18.93;37.49
15267;BME280;7735;49.144;8.668;2023-05-19T10:48:10;100594.78;;;18.98;37.62
15267;BME280;7735;49.144;8.668;2023-05-19T10:50:38;100594.72;;;19.01;37.63
15267;BME280;7735;49.144;8.668;2023-05-19T10:53:13;100595.44;;;19.05;37.42
15267;BME280;7735;49.144;8.668;2023-05-19T10:55:48;100593.66;;;19.05;37.21
15267;BME280;7735;49.144;8.668;2023-05-19T10:58:37;100594.59;;;19.04;37.43
15267;BME280;7735;49.144;8.668;2023-05-19T11:01:08;100589.25;;;19.06;37.59
15267;BME280;7735;49.144;8.668;2023-05-19T11:03:43;100591.81;;;19.07;37.26
15267;BME280;7735;49.144;8.668;2023-05-19T11:06:24;100586.53;;;19.09;37.52
15267;BME280;7735;49.144;8.668;2023-05-19T11:08:53;100581.13;;;19.12;37.64
15267;BME280;7735;49.144;8.668;2023-05-19T11:11:20;100581.84;;;19.15;37.97
15267;BME280;7735;49.144;8.668;2023-05-19T11:13:50;100592.31;;;19.18;37.97
15267;BME280;7735;49.144;8.668;2023-05-19T11:16:26;100584.22;;;19.23;38.12
15267;BME280;7735;49.144;8.668;2023-05-19T11:18:54;100577.09;;;19.25;38.32
15267;BME280;7735;49.144;8.668;2023-05-19T11:21:22;100578.78;;;19.28;38.27
15267;BME280;7735;49.144;8.668;2023-05-19T11:23:50;100578.72;;;19.29;38.57
15267;BME280;7735;49.144;8.668;2023-05-19T11:26:39;100575.16;;;19.30;38.72
15267;BME280;7735;49.144;8.668;2023-05-19T11:29:06;100573.44;;;19.29;38.74
15267;BME280;7735;49.144;8.668;2023-05-19T11:31:34;100562.88;;;19.29;39.05
15267;BME280;7735;49.144;8.668;2023-05-19T11:34:02;100571.50;;;19.34;39.01
15267;BME280;7735;49.144;8.668;2023-05-19T11:36:32;100566.91;;;19.39;39.12
15267;BME280;7735;49.144;8.668;2023-05-19T11:39:01;100565.44;;;19.79;38.39
15267;BME280;7735;49.144;8.668;2023-05-19T11:41:28;100565.50;;;19.99;38.07
15267;BME280;7735;49.144;8.668;2023-05-19T11:43:55;100572.22;;;20.08;37.91
15267;BME280;7735;49.144;8.668;2023-05-19T11:46:21;100568.50;;;20.12;37.75
15267;BME280;7735;49.144;8.668;2023-05-19T11:49:00;100578.13;;;20.15;37.66
15267;BME280;7735;49.144;8.668;2023-05-19T11:51:27;100570.97;;;20.17;37.46
15267;BME280;7735;49.144;8.668;2023-05-19T11:53:55;100570.13;;;20.16;37.21
15267;BME280;7735;49.144;8.668;2023-05-19T11:56:22;100575.34;;;20.18;37.42
15267;BME280;7735;49.144;8.668;2023-05-19T11:58:51;100573.63;;;20.17;37.93
15267;BME280;7735;49.144;8.668;2023-05-19T12:01:22;100578.13;;;20.15;37.92
15267;BME280;7735;49.144;8.668;2023-05-19T12:03:50;100573.00;;;20.10;37.82
15267;BME280;7735;49.144;8.668;2023-05-19T12:06:17;100570.41;;;20.08;37.83
15267;BME280;7735;49.144;8.668;2023-05-19T12:08:44;100567.94;;;20.04;37.75
15267;BME280;7735;49.144;8.668;2023-05-19T12:11:13;100575.22;;;19.99;37.54
15267;BME280;7735;49.144;8.668;2023-05-19T12:13:39;100582.34;;;19.97;37.73
15267;BME280;7735;49.144;8.668;2023-05-19T12:16:07;100587.81;;;19.92;37.96
15267;BME280;7735;49.144;8.668;2023-05-19T12:18:36;100581.81;;;19.87;38.40
15267;BME280;7735;49.144;8.668;2023-05-19T12:21:03;100583.81;;;19.82;38.63
15267;BME280;7735;49.144;8.668;2023-05-19T12:23:30;100576.97;;;19.76;38.68
15267;BME280;7735;49.144;8.668;2023-05-19T12:25:58;100577.03;;;19.75;38.73
15267;BME280;7735;49.144;8.668;2023-05-19T12:28:28;100570.16;;;19.71;38.76
15267;BME280;7735;49.144;8.668;2023-05-19T12:30:55;100572.84;;;19.69;38.52
15267;BME280;7735;49.144;8.668;2023-05-19T12:33:23;100580.81;;;19.68;38.62
15267;BME280;7735;49.144;8.668;2023-05-19T12:35:50;100580.94;;;19.65;38.93
15267;BME280;7735;49.144;8.668;2023-05-19T12:38:18;100581.00;;;19.63;38.96
15267;BME280;7735;49.144;8.668;2023-05-19T12:40:45;100577.53;;;19.61;39.43
15267;BME280;7735;49.144;8.668;2023-05-19T12:43:18;100571.41;;;19.61;39.39
15267;BME280;7735;49.144;8.668;2023-05-19T12:45:46;100581.06;;;19.62;39.55
15267;BME280;7735;49.144;8.668;2023-05-19T12:48:13;100576.66;;;19.62;39.63
15267;BME280;7735;49.144;8.668;2023-05-19T12:50:41;100574.88;;;19.63;39.73
15267;BME280;7735;49.144;8.668;2023-05-19T12:53:10;100580.03;;;19.66;39.80
15267;BME280;7735;49.144;8.668;2023-05-19T12:55:38;100584.38;;;19.67;39.51
15267;BME280;7735;49.144;8.668;2023-05-19T12:58:07;100572.97;;;19.66;39.69
15267;BME280;7735;49.144;8.668;2023-05-19T13:00:39;100570.38;;;19.65;39.69
15267;BME280;7735;49.144;8.668;2023-05-19T13:03:13;100574.81;;;19.64;39.84
15267;BME280;7735;49.144;8.668;2023-05-19T13:05:42;100579.22;;;19.64;39.98
15267;BME280;7735;49.144;8.668;2023-05-19T13:08:12;100578.44;;;19.62;40.11
15267;BME280;7735;49.144;8.668;2023-05-19T13:10:40;100574.97;;;19.60;40.23